sensor_id;sensor_type;location;lat;lon;timestamp;P1;durP1;ratioP1;P2;durP2;ratioP2
72439;SDS011;60446;50.752;4.352;2024-02-28T00:00:29;22.08;;;9.55;;
72439;SDS011;60446;50.752;4.352;2024-02-28T00:02:56;19.27;;;9.07;;
72439;SDS011;60446;50.752;4.352;2024-02-28T00:05:23;17.40;;;8.60;;
72439;SDS011;60446;50.752;4.352;2024-02-28T00:07:50;18.23;;;7.68;;
72439;SDS011;60446;50.752;4.352;2024-02-28T00:10:19;18.95;;;9.20;;
72439;SDS011;60446;50.752;4.352;2024-02-28T00:12:46;18.17;;;8.85;;
72439;SDS011;60446;50.752;4.352;2024-02-28T00:15:14;23.55;;;8.20;;
72439;SDS011;60446;50.752;4.352;2024-02-28T00:17:42;21.67;;;8.97;;
72439;SDS011;60446;50.752;4.352;2024-02-28T00:20:10;25.45;;;9.25;;
72439;SDS011;60446;50.752;4.352;2024-02-28T00:22:39;19.02;;;9.43;;
72439;SDS011;60446;50.752;4.352;2024-02-28T00:25:06;18.15;;;8.85;;
72439;SDS011;60446;50.752;4.352;2024-02-28T00:27:36;21.23;;;9.27;;
72439;SDS011;60446;50.752;4.352;2024-02-28T00:30:03;21.00;;;8.70;;
72439;SDS011;60446;50.752;4.352;2024-02-28T00:32:35;24.30;;;9.30;;
72439;SDS011;60446;50.752;4.352;2024-02-28T00:35:02;20.63;;;8.60;;
72439;SDS011;60446;50.752;4.352;2024-02-28T00:37:30;21.90;;;9.18;;
72439;SDS011;60446;50.752;4.352;2024-02-28T00:39:57;19.15;;;9.00;;
72439;SDS011;60446;50.752;4.352;2024-02-28T00:42:25;17.07;;;9.50;;
72439;SDS011;60446;50.752;4.352;2024-02-28T00:44:54;19.58;;;7.85;;
72439;SDS011;60446;50.752;4.352;2024-02-28T00:47:21;21.17;;;9.52;;
72439;SDS011;60446;50.752;4.352;2024-02-28T00:49:48;19.55;;;8.45;;
72439;SDS011;60446;50.752;4.352;2024-02-28T00:52:15;19.88;;;9.55;;
72439;SDS011;60446;50.752;4.352;2024-02-28T00:54:42;18.23;;;8.67;;
72439;SDS011;60446;50.752;4.352;2024-02-28T00:57:12;23.08;;;9.77;;
72439;SDS011;60446;50.752;4.352;2024-02-28T00:59:39;20.98;;;9.43;;
72439;SDS011;60446;50.752;4.352;2024-02-28T01:02:07;22.40;;;10.23;;
72439;SDS011;60446;50.752;4.352;2024-02-28T01:04:34;18.25;;;9.48;;
72439;SDS011;60446;50.752;4.352;2024-02-28T01:07:01;19.67;;;9.03;;
72439;SDS011;60446;50.752;4.352;2024-02-28T01:09:28;18.95;;;9.63;;
72439;SDS011;60446;50.752;4.352;2024-02-28T01:11:55;19.65;;;8.68;;
72439;SDS011;60446;50.752;4.352;2024-02-28T01:14:22;20.02;;;9.10;;
72439;SDS011;60446;50.752;4.352;2024-02-28T01:16:50;18.00;;;8.23;;
72439;SDS011;60446;50.752;4.352;2024-02-28T01:19:17;20.63;;;8.73;;
72439;SDS011;60446;50.752;4.352;2024-02-28T01:21:44;24.95;;;8.73;;
72439;SDS011;60446;50.752;4.352;2024-02-28T01:24:12;19.77;;;8.98;;
72439;SDS011;60446;50.752;4.352;2024-02-28T01:26:39;18.67;;;9.57;;
72439;SDS011;60446;50.752;4.352;2024-02-28T01:29:07;16.85;;;9.00;;
72439;SDS011;60446;50.752;4.352;2024-02-28T01:31:34;18.17;;;8.13;;
72439;SDS011;60446;50.752;4.352;2024-02-28T01:34:01;21.38;;;9.85;;
72439;SDS011;60446;50.752;4.352;2024-02-28T01:36:29;17.73;;;8.02;;
72439;SDS011;60446;50.752;4.352;2024-02-28T01:38:57;19.92;;;9.55;;
72439;SDS011;60446;50.752;4.352;2024-02-28T01:41:24;24.52;;;8.23;;
72439;SDS011;60446;50.752;4.352;2024-02-28T01:43:51;17.13;;;9.03;;
72439;SDS011;60446;50.752;4.352;2024-02-28T01:46:21;19.00;;;8.65;;
72439;SDS011;60446;50.752;4.352;2024-02-28T01:48:53;16.33;;;8.38;;
72439;SDS011;60446;50.752;4.352;2024-02-28T01:51:25;15.13;;;8.23;;
72439;SDS011;60446;50.752;4.352;2024-02-28T01:53:54;17.67;;;8.55;;
72439;SDS011;60446;50.752;4.352;2024-02-28T01:56:23;18.60;;;8.73;;
72439;SDS011;60446;50.752;4.352;2024-02-28T01:58:53;17.50;;;8.45;;
72439;SDS011;60446;50.752;4.352;2024-02-28T02:01:22;17.67;;;8.38;;
72439;SDS011;60446;50.752;4.352;2024-02-28T02:03:51;18.90;;;8.13;;
72439;SDS011;60446;50.752;4.352;2024-02-28T02:06:19;16.38;;;7.78;;
72439;SDS011;60446;50.752;4.352;2024-02-28T02:08:47;16.87;;;7.53;;
72439;SDS011;60446;50.752;4.352;2024-02-28T02:11:14;19.15;;;8.82;;
72439;SDS011;60446;50.752;4.352;2024-02-28T02:13:54;20.25;;;8.27;;
72439;SDS011;60446;50.752;4.352;2024-02-28T02:16:22;22.45;;;9.73;;
72439;SDS011;60446;50.752;4.352;2024-02-28T02:18:52;19.63;;;7.75;;
72439;SDS011;60446;50.752;4.352;2024-02-28T02:21:23;19.87;;;8.33;;
72439;SDS011;60446;50.752;4.352;2024-02-28T02:23:51;16.00;;;7.80;;
72439;SDS011;60446;50.752;4.352;2024-02-28T02:26:18;18.17;;;8.57;;
72439;SDS011;60446;50.752;4.352;2024-02-28T02:28:47;23.05;;;9.20;;
72439;SDS011;60446;50.752;4.352;2024-02-28T02:31:14;18.35;;;8.25;;
72439;SDS011;60446;50.752;4.352;2024-02-28T02:33:41;19.83;;;9.23;;
72439;SDS011;60446;50.752;4.352;2024-02-28T02:36:08;14.68;;;7.68;;
72439;SDS011;60446;50.752;4.352;2024-02-28T02:38:36;19.52;;;7.88;;
72439;SDS011;60446;50.752;4.352;2024-02-28T02:41:03;18.98;;;7.75;;
72439;SDS011;60446;50.752;4.352;2024-02-28T02:43:30;18.33;;;8.18;;
72439;SDS011;60446;50.752;4.352;2024-02-28T02:45:58;18.63;;;8.23;;
72439;SDS011;60446;50.752;4.352;2024-02-28T02:48:25;17.05;;;7.47;;
72439;SDS011;60446;50.752;4.352;2024-02-28T02:50:52;15.98;;;7.15;;
72439;SDS011;60446;50.752;4.352;2024-02-28T02:53:19;15.98;;;7.53;;
72439;SDS011;60446;50.752;4.352;2024-02-28T02:55:48;20.52;;;7.70;;
72439;SDS011;60446;50.752;4.352;2024-02-28T02:58:15;15.73;;;6.70;;
72439;SDS011;60446;50.752;4.352;2024-02-28T03:00:42;14.88;;;8.20;;
72439;SDS011;60446;50.752;4.352;2024-02-28T03:03:10;17.70;;;9.05;;
72439;SDS011;60446;50.752;4.352;2024-02-28T03:05:37;20.27;;;7.90;;
72439;SDS011;60446;50.752;4.352;2024-02-28T03:08:07;17.67;;;8.35;;
72439;SDS011;60446;50.752;4.352;2024-02-28T03:10:34;18.73;;;6.63;;
72439;SDS011;60446;50.752;4.352;2024-02-28T03:13:01;16.40;;;7.38;;
72439;SDS011;60446;50.752;4.352;2024-02-28T03:15:28;14.30;;;7.85;;
72439;SDS011;60446;50.752;4.352;2024-02-28T03:17:56;20.05;;;8.02;;
72439;SDS011;60446;50.752;4.352;2024-02-28T03:20:23;17.67;;;7.25;;
72439;SDS011;60446;50.752;4.352;2024-02-28T03:22:50;15.57;;;7.43;;
72439;SDS011;60446;50.752;4.352;2024-02-28T03:25:17;17.20;;;7.22;;
72439;SDS011;60446;50.752;4.352;2024-02-28T03:27:44;20.55;;;7.85;;
72439;SDS011;60446;50.752;4.352;2024-02-28T03:30:12;16.80;;;8.02;;
72439;SDS011;60446;50.752;4.352;2024-02-28T03:32:41;14.90;;;7.10;;
72439;SDS011;60446;50.752;4.352;2024-02-28T03:35:08;12.77;;;5.43;;
72439;SDS011;60446;50.752;4.352;2024-02-28T03:37:35;20.25;;;7.72;;
72439;SDS011;60446;50.752;4.352;2024-02-28T03:40:03;12.85;;;7.65;;
72439;SDS011;60446;50.752;4.352;2024-02-28T03:42:30;16.90;;;7.30;;
72439;SDS011;60446;50.752;4.352;2024-02-28T03:44:57;16.88;;;8.77;;
72439;SDS011;60446;50.752;4.352;2024-02-28T03:47:24;16.70;;;6.57;;
72439;SDS011;60446;50.752;4.352;2024-02-28T03:49:52;17.20;;;6.78;;
72439;SDS011;60446;50.752;4.352;2024-02-28T03:52:19;15.48;;;7.05;;
72439;SDS011;60446;50.752;4.352;2024-02-28T03:54:46;15.25;;;6.78;;
72439;SDS011;60446;50.752;4.352;2024-02-28T03:57:13;18.48;;;7.85;;
72439;SDS011;60446;50.752;4.352;2024-02-28T03:59:41;18.93;;;8.30;;
72439;SDS011;60446;50.752;4.352;2024-02-28T04:02:09;14.98;;;6.90;;
72439;SDS011;60446;50.752;4.352;2024-02-28T04:04:36;16.00;;;7.28;;
72439;SDS011;60446;50.752;4.352;2024-02-28T04:07:03;19.27;;;7.80;;
72439;SDS011;60446;50.752;4.352;2024-02-28T04:09:30;18.20;;;6.90;;
72439;SDS011;60446;50.752;4.352;2024-02-28T04:11:58;15.80;;;7.10;;
72439;SDS011;60446;50.752;4.352;2024-02-28T04:14:25;16.98;;;7.53;;
72439;SDS011;60446;50.752;4.352;2024-02-28T04:16:52;15.65;;;7.13;;
72439;SDS011;60446;50.752;4.352;2024-02-28T04:19:19;15.50;;;6.97;;
72439;SDS011;60446;50.752;4.352;2024-02-28T04:21:46;19.42;;;7.00;;
72439;SDS011;60446;50.752;4.352;2024-02-28T04:24:14;30.07;;;8.83;;
72439;SDS011;60446;50.752;4.352;2024-02-28T04:26:43;18.48;;;7.88;;
72439;SDS011;60446;50.752;4.352;2024-02-28T04:29:10;20.52;;;7.07;;
72439;SDS011;60446;50.752;4.352;2024-02-28T04:31:40;16.30;;;6.85;;
72439;SDS011;60446;50.752;4.352;2024-02-28T04:34:08;17.27;;;7.28;;
72439;SDS011;60446;50.752;4.352;2024-02-28T04:36:35;13.80;;;6.53;;
72439;SDS011;60446;50.752;4.352;2024-02-28T04:39:02;16.98;;;6.82;;
72439;SDS011;60446;50.752;4.352;2024-02-28T04:41:32;17.77;;;7.30;;
72439;SDS011;60446;50.752;4.352;2024-02-28T04:44:00;14.85;;;7.07;;
72439;SDS011;60446;50.752;4.352;2024-02-28T04:46:27;12.02;;;5.85;;
72439;SDS011;60446;50.752;4.352;2024-02-28T04:48:55;20.80;;;7.07;;
72439;SDS011;60446;50.752;4.352;2024-02-28T04:51:22;17.95;;;7.68;;
72439;SDS011;60446;50.752;4.352;2024-02-28T04:53:49;16.48;;;7.10;;
72439;SDS011;60446;50.752;4.352;2024-02-28T04:56:16;15.70;;;7.25;;
72439;SDS011;60446;50.752;4.352;2024-02-28T04:58:44;15.50;;;6.50;;
72439;SDS011;60446;50.752;4.352;2024-02-28T05:01:14;23.77;;;7.47;;
72439;SDS011;60446;50.752;4.352;2024-02-28T05:03:47;16.25;;;7.20;;
72439;SDS011;60446;50.752;4.352;2024-02-28T05:06:14;20.48;;;8.25;;
72439;SDS011;60446;50.752;4.352;2024-02-28T05:08:41;18.98;;;7.57;;
72439;SDS011;60446;50.752;4.352;2024-02-28T05:11:08;16.25;;;6.40;;
72439;SDS011;60446;50.752;4.352;2024-02-28T05:13:36;14.60;;;7.07;;
72439;SDS011;60446;50.752;4.352;2024-02-28T05:16:03;20.80;;;7.32;;
72439;SDS011;60446;50.752;4.352;2024-02-28T05:18:33;14.93;;;6.70;;
72439;SDS011;60446;50.752;4.352;2024-02-28T05:21:01;16.23;;;6.10;;
72439;SDS011;60446;50.752;4.352;2024-02-28T05:23:28;16.75;;;7.70;;
72439;SDS011;60446;50.752;4.352;2024-02-28T05:25:57;19.93;;;7.40;;
72439;SDS011;60446;50.752;4.352;2024-02-28T05:28:30;18.40;;;8.25;;
72439;SDS011;60446;50.752;4.352;2024-02-28T05:31:01;14.95;;;7.20;;
72439;SDS011;60446;50.752;4.352;2024-02-28T05:33:46;16.77;;;6.57;;
72439;SDS011;60446;50.752;4.352;2024-02-28T05:36:13;20.67;;;8.15;;
72439;SDS011;60446;50.752;4.352;2024-02-28T05:38:41;18.63;;;9.10;;
72439;SDS011;60446;50.752;4.352;2024-02-28T05:41:08;24.20;;;8.57;;
72439;SDS011;60446;50.752;4.352;2024-02-28T05:43:37;19.10;;;8.02;;
72439;SDS011;60446;50.752;4.352;2024-02-28T05:46:05;16.17;;;6.90;;
72439;SDS011;60446;50.752;4.352;2024-02-28T05:48:32;15.23;;;8.18;;
72439;SDS011;60446;50.752;4.352;2024-02-28T05:51:02;16.97;;;8.17;;
72439;SDS011;60446;50.752;4.352;2024-02-28T05:53:30;17.40;;;7.82;;
72439;SDS011;60446;50.752;4.352;2024-02-28T05:56:02;17.27;;;9.18;;
72439;SDS011;60446;50.752;4.352;2024-02-28T05:58:30;26.00;;;10.50;;
72439;SDS011;60446;50.752;4.352;2024-02-28T06:00:57;22.95;;;12.23;;
72439;SDS011;60446;50.752;4.352;2024-02-28T06:03:24;26.67;;;12.57;;
72439;SDS011;60446;50.752;4.352;2024-02-28T06:05:52;25.40;;;12.15;;
72439;SDS011;60446;50.752;4.352;2024-02-28T06:08:20;28.23;;;11.77;;
72439;SDS011;60446;50.752;4.352;2024-02-28T06:10:48;23.27;;;11.88;;
72439;SDS011;60446;50.752;4.352;2024-02-28T06:13:16;22.17;;;10.13;;
72439;SDS011;60446;50.752;4.352;2024-02-28T06:15:43;20.17;;;8.70;;
72439;SDS011;60446;50.752;4.352;2024-02-28T06:18:10;20.00;;;9.35;;
72439;SDS011;60446;50.752;4.352;2024-02-28T06:20:37;20.77;;;8.65;;
72439;SDS011;60446;50.752;4.352;2024-02-28T06:23:04;24.25;;;9.18;;
72439;SDS011;60446;50.752;4.352;2024-02-28T06:25:41;20.73;;;10.52;;
72439;SDS011;60446;50.752;4.352;2024-02-28T06:28:10;20.63;;;8.53;;
72439;SDS011;60446;50.752;4.352;2024-02-28T06:30:37;21.00;;;8.10;;
72439;SDS011;60446;50.752;4.352;2024-02-28T06:33:04;25.92;;;9.93;;
72439;SDS011;60446;50.752;4.352;2024-02-28T06:35:32;19.00;;;8.95;;
72439;SDS011;60446;50.752;4.352;2024-02-28T06:37:59;25.70;;;8.60;;
72439;SDS011;60446;50.752;4.352;2024-02-28T06:40:27;18.70;;;7.93;;
72439;SDS011;60446;50.752;4.352;2024-02-28T06:42:59;18.52;;;8.00;;
72439;SDS011;60446;50.752;4.352;2024-02-28T06:45:27;20.27;;;8.00;;
72439;SDS011;60446;50.752;4.352;2024-02-28T06:47:54;18.92;;;9.05;;
72439;SDS011;60446;50.752;4.352;2024-02-28T06:50:21;26.90;;;9.65;;
72439;SDS011;60446;50.752;4.352;2024-02-28T06:52:49;19.23;;;8.10;;
72439;SDS011;60446;50.752;4.352;2024-02-28T06:55:16;22.27;;;8.98;;
72439;SDS011;60446;50.752;4.352;2024-02-28T06:57:44;23.10;;;9.82;;
72439;SDS011;60446;50.752;4.352;2024-02-28T07:00:11;22.98;;;9.10;;
72439;SDS011;60446;50.752;4.352;2024-02-28T07:02:41;21.83;;;8.38;;
72439;SDS011;60446;50.752;4.352;2024-02-28T07:05:08;18.33;;;8.20;;
72439;SDS011;60446;50.752;4.352;2024-02-28T07:07:35;21.88;;;7.85;;
72439;SDS011;60446;50.752;4.352;2024-02-28T07:10:04;27.67;;;9.90;;
72439;SDS011;60446;50.752;4.352;2024-02-28T07:12:32;19.73;;;8.48;;
72439;SDS011;60446;50.752;4.352;2024-02-28T07:14:59;23.58;;;9.93;;
72439;SDS011;60446;50.752;4.352;2024-02-28T07:17:27;18.40;;;8.50;;
72439;SDS011;60446;50.752;4.352;2024-02-28T07:19:54;19.77;;;8.68;;
72439;SDS011;60446;50.752;4.352;2024-02-28T07:22:22;20.15;;;9.10;;
72439;SDS011;60446;50.752;4.352;2024-02-28T07:24:49;22.92;;;9.32;;
72439;SDS011;60446;50.752;4.352;2024-02-28T07:27:16;21.50;;;10.45;;
72439;SDS011;60446;50.752;4.352;2024-02-28T07:29:43;27.03;;;9.77;;
72439;SDS011;60446;50.752;4.352;2024-02-28T07:32:10;26.15;;;10.77;;
72439;SDS011;60446;50.752;4.352;2024-02-28T07:34:38;27.27;;;9.63;;
72439;SDS011;60446;50.752;4.352;2024-02-28T07:37:06;22.15;;;9.20;;
72439;SDS011;60446;50.752;4.352;2024-02-28T07:39:33;21.75;;;8.80;;
72439;SDS011;60446;50.752;4.352;2024-02-28T07:42:00;20.30;;;9.33;;
72439;SDS011;60446;50.752;4.352;2024-02-28T07:44:27;26.25;;;10.05;;
72439;SDS011;60446;50.752;4.352;2024-02-28T07:46:57;19.40;;;9.32;;
72439;SDS011;60446;50.752;4.352;2024-02-28T07:49:25;23.52;;;8.95;;
72439;SDS011;60446;50.752;4.352;2024-02-28T07:51:54;25.50;;;8.95;;
72439;SDS011;60446;50.752;4.352;2024-02-28T07:54:22;25.13;;;9.73;;
72439;SDS011;60446;50.752;4.352;2024-02-28T07:56:50;23.40;;;8.50;;
72439;SDS011;60446;50.752;4.352;2024-02-28T07:59:18;23.10;;;9.77;;
72439;SDS011;60446;50.752;4.352;2024-02-28T08:01:47;21.45;;;8.90;;
72439;SDS011;60446;50.752;4.352;2024-02-28T08:04:14;23.48;;;9.80;;
72439;SDS011;60446;50.752;4.352;2024-02-28T08:06:42;23.77;;;8.50;;
72439;SDS011;60446;50.752;4.352;2024-02-28T08:09:09;24.45;;;9.35;;
72439;SDS011;60446;50.752;4.352;2024-02-28T08:11:39;24.67;;;9.00;;
72439;SDS011;60446;50.752;4.352;2024-02-28T08:14:06;23.58;;;9.40;;
72439;SDS011;60446;50.752;4.352;2024-02-28T08:16:34;24.65;;;9.13;;
72439;SDS011;60446;50.752;4.352;2024-02-28T08:19:01;22.43;;;9.90;;
72439;SDS011;60446;50.752;4.352;2024-02-28T08:21:29;22.50;;;9.73;;
72439;SDS011;60446;50.752;4.352;2024-02-28T08:23:56;28.90;;;9.65;;
72439;SDS011;60446;50.752;4.352;2024-02-28T08:26:24;21.15;;;7.97;;
72439;SDS011;60446;50.752;4.352;2024-02-28T08:28:54;23.42;;;8.50;;
72439;SDS011;60446;50.752;4.352;2024-02-28T08:31:21;26.77;;;9.00;;
72439;SDS011;60446;50.752;4.352;2024-02-28T08:33:48;26.10;;;8.27;;
72439;SDS011;60446;50.752;4.352;2024-02-28T08:36:16;21.05;;;8.05;;
72439;SDS011;60446;50.752;4.352;2024-02-28T08:38:43;25.92;;;8.32;;
72439;SDS011;60446;50.752;4.352;2024-02-28T08:41:10;22.85;;;9.07;;
72439;SDS011;60446;50.752;4.352;2024-02-28T08:43:39;19.07;;;8.20;;
72439;SDS011;60446;50.752;4.352;2024-02-28T08:46:08;23.33;;;9.02;;
72439;SDS011;60446;50.752;4.352;2024-02-28T08:48:41;25.05;;;7.65;;
72439;SDS011;60446;50.752;4.352;2024-02-28T08:51:09;22.88;;;7.10;;
72439;SDS011;60446;50.752;4.352;2024-02-28T08:53:37;21.40;;;7.22;;
72439;SDS011;60446;50.752;4.352;2024-02-28T08:56:05;26.80;;;8.50;;
72439;SDS011;60446;50.752;4.352;2024-02-28T08:58:33;23.42;;;8.70;;
72439;SDS011;60446;50.752;4.352;2024-02-28T09:01:00;24.15;;;8.20;;
72439;SDS011;60446;50.752;4.352;2024-02-28T09:03:27;20.85;;;8.27;;
72439;SDS011;60446;50.752;4.352;2024-02-28T09:05:54;24.85;;;9.88;;
72439;SDS011;60446;50.752;4.352;2024-02-28T09:08:21;22.80;;;7.10;;
72439;SDS011;60446;50.752;4.352;2024-02-28T09:10:49;29.45;;;7.90;;
72439;SDS011;60446;50.752;4.352;2024-02-28T09:13:16;22.73;;;7.70;;
72439;SDS011;60446;50.752;4.352;2024-02-28T09:15:44;23.95;;;7.95;;
72439;SDS011;60446;50.752;4.352;2024-02-28T09:18:11;27.60;;;8.13;;
72439;SDS011;60446;50.752;4.352;2024-02-28T09:20:38;31.97;;;8.27;;
72439;SDS011;60446;50.752;4.352;2024-02-28T09:23:06;24.77;;;7.70;;
72439;SDS011;60446;50.752;4.352;2024-02-28T09:25:33;22.85;;;8.20;;
72439;SDS011;60446;50.752;4.352;2024-02-28T09:28:07;22.10;;;7.60;;
72439;SDS011;60446;50.752;4.352;2024-02-28T09:30:35;26.45;;;7.28;;
72439;SDS011;60446;50.752;4.352;2024-02-28T09:33:13;24.70;;;7.13;;
72439;SDS011;60446;50.752;4.352;2024-02-28T09:35:41;21.75;;;7.43;;
72439;SDS011;60446;50.752;4.352;2024-02-28T09:38:09;19.10;;;7.05;;
72439;SDS011;60446;50.752;4.352;2024-02-28T09:40:37;22.15;;;8.07;;
72439;SDS011;60446;50.752;4.352;2024-02-28T09:43:05;21.00;;;7.35;;
72439;SDS011;60446;50.752;4.352;2024-02-28T09:45:38;19.40;;;7.27;;
72439;SDS011;60446;50.752;4.352;2024-02-28T09:48:09;23.15;;;8.13;;
72439;SDS011;60446;50.752;4.352;2024-02-28T09:50:36;23.02;;;7.55;;
72439;SDS011;60446;50.752;4.352;2024-02-28T09:53:06;21.15;;;7.97;;
72439;SDS011;60446;50.752;4.352;2024-02-28T09:55:36;24.00;;;8.38;;
72439;SDS011;60446;50.752;4.352;2024-02-28T09:58:03;18.47;;;6.63;;
72439;SDS011;60446;50.752;4.352;2024-02-28T10:00:31;19.70;;;6.43;;
72439;SDS011;60446;50.752;4.352;2024-02-28T10:03:01;16.58;;;7.47;;
72439;SDS011;60446;50.752;4.352;2024-02-28T10:05:32;20.27;;;7.53;;
72439;SDS011;60446;50.752;4.352;2024-02-28T10:08:01;18.10;;;6.47;;
72439;SDS011;60446;50.752;4.352;2024-02-28T10:10:28;21.03;;;6.70;;
72439;SDS011;60446;50.752;4.352;2024-02-28T10:12:55;17.35;;;6.78;;
72439;SDS011;60446;50.752;4.352;2024-02-28T10:15:28;17.23;;;7.97;;
72439;SDS011;60446;50.752;4.352;2024-02-28T10:17:55;20.20;;;7.93;;
72439;SDS011;60446;50.752;4.352;2024-02-28T10:20:22;18.80;;;8.18;;
72439;SDS011;60446;50.752;4.352;2024-02-28T10:22:51;16.33;;;7.07;;
72439;SDS011;60446;50.752;4.352;2024-02-28T10:25:19;15.57;;;6.35;;
72439;SDS011;60446;50.752;4.352;2024-02-28T10:27:47;22.90;;;9.05;;
72439;SDS011;60446;50.752;4.352;2024-02-28T10:30:14;19.85;;;8.15;;
72439;SDS011;60446;50.752;4.352;2024-02-28T10:32:49;19.73;;;8.00;;
72439;SDS011;60446;50.752;4.352;2024-02-28T10:35:19;18.67;;;8.40;;
72439;SDS011;60446;50.752;4.352;2024-02-28T10:37:47;18.75;;;6.85;;
72439;SDS011;60446;50.752;4.352;2024-02-28T10:40:16;15.45;;;7.55;;
72439;SDS011;60446;50.752;4.352;2024-02-28T10:42:44;15.38;;;7.10;;
72439;SDS011;60446;50.752;4.352;2024-02-28T10:45:12;13.20;;;5.70;;
72439;SDS011;60446;50.752;4.352;2024-02-28T10:47:55;16.70;;;6.47;;
72439;SDS011;60446;50.752;4.352;2024-02-28T10:50:26;15.43;;;6.90;;
72439;SDS011;60446;50.752;4.352;2024-02-28T10:52:53;11.13;;;5.47;;
72439;SDS011;60446;50.752;4.352;2024-02-28T10:55:27;16.10;;;6.25;;
72439;SDS011;60446;50.752;4.352;2024-02-28T10:58:05;13.73;;;6.07;;
72439;SDS011;60446;50.752;4.352;2024-02-28T11:00:38;20.07;;;6.03;;
72439;SDS011;60446;50.752;4.352;2024-02-28T11:03:08;16.52;;;5.90;;
72439;SDS011;60446;50.752;4.352;2024-02-28T11:05:37;11.38;;;4.93;;
72439;SDS011;60446;50.752;4.352;2024-02-28T11:08:10;13.85;;;5.05;;
72439;SDS011;60446;50.752;4.352;2024-02-28T11:10:47;9.82;;;4.85;;
72439;SDS011;60446;50.752;4.352;2024-02-28T11:13:25;9.77;;;4.57;;
72439;SDS011;60446;50.752;4.352;2024-02-28T11:15:54;9.35;;;4.63;;
72439;SDS011;60446;50.752;4.352;2024-02-28T11:18:22;11.70;;;4.60;;
72439;SDS011;60446;50.752;4.352;2024-02-28T11:20:51;10.48;;;4.63;;
72439;SDS011;60446;50.752;4.352;2024-02-28T11:23:18;11.38;;;4.20;;
72439;SDS011;60446;50.752;4.352;2024-02-28T11:25:45;10.53;;;4.43;;
72439;SDS011;60446;50.752;4.352;2024-02-28T11:28:13;11.25;;;4.32;;
72439;SDS011;60446;50.752;4.352;2024-02-28T11:30:42;11.55;;;4.93;;
72439;SDS011;60446;50.752;4.352;2024-02-28T11:33:09;8.88;;;4.63;;
72439;SDS011;60446;50.752;4.352;2024-02-28T11:35:36;12.00;;;4.55;;
72439;SDS011;60446;50.752;4.352;2024-02-28T11:38:08;9.00;;;3.87;;
72439;SDS011;60446;50.752;4.352;2024-02-28T11:40:38;12.40;;;4.40;;
72439;SDS011;60446;50.752;4.352;2024-02-28T11:43:15;11.23;;;6.13;;
72439;SDS011;60446;50.752;4.352;2024-02-28T11:45:42;10.82;;;5.05;;
72439;SDS011;60446;50.752;4.352;2024-02-28T11:48:10;13.35;;;5.78;;
72439;SDS011;60446;50.752;4.352;2024-02-28T11:50:37;10.03;;;5.23;;
72439;SDS011;60446;50.752;4.352;2024-02-28T11:53:05;10.77;;;4.60;;
72439;SDS011;60446;50.752;4.352;2024-02-28T11:55:34;10.43;;;4.70;;
72439;SDS011;60446;50.752;4.352;2024-02-28T11:58:02;14.35;;;4.55;;
72439;SDS011;60446;50.752;4.352;2024-02-28T12:00:45;11.32;;;4.97;;
72439;SDS011;60446;50.752;4.352;2024-02-28T12:03:20;8.83;;;4.67;;
72439;SDS011;60446;50.752;4.352;2024-02-28T12:05:51;11.23;;;4.85;;
72439;SDS011;60446;50.752;4.352;2024-02-28T12:08:19;14.40;;;5.63;;
72439;SDS011;60446;50.752;4.352;2024-02-28T12:10:47;14.07;;;4.47;;
72439;SDS011;60446;50.752;4.352;2024-02-28T12:13:16;13.82;;;5.03;;
72439;SDS011;60446;50.752;4.352;2024-02-28T12:15:44;12.77;;;4.60;;
72439;SDS011;60446;50.752;4.352;2024-02-28T12:18:14;11.70;;;5.32;;
72439;SDS011;60446;50.752;4.352;2024-02-28T12:20:42;9.07;;;4.93;;
72439;SDS011;60446;50.752;4.352;2024-02-28T12:23:09;11.18;;;5.57;;
72439;SDS011;60446;50.752;4.352;2024-02-28T12:25:36;11.65;;;5.57;;
72439;SDS011;60446;50.752;4.352;2024-02-28T12:28:05;11.50;;;5.00;;
72439;SDS011;60446;50.752;4.352;2024-02-28T12:30:41;12.95;;;5.10;;
72439;SDS011;60446;50.752;4.352;2024-02-28T12:33:11;13.82;;;5.68;;
72439;SDS011;60446;50.752;4.352;2024-02-28T12:35:38;11.27;;;5.55;;
72439;SDS011;60446;50.752;4.352;2024-02-28T12:38:05;10.18;;;4.22;;
72439;SDS011;60446;50.752;4.352;2024-02-28T12:40:32;12.33;;;4.43;;
72439;SDS011;60446;50.752;4.352;2024-02-28T12:43:00;11.07;;;4.15;;
72439;SDS011;60446;50.752;4.352;2024-02-28T12:45:28;9.98;;;4.90;;
72439;SDS011;60446;50.752;4.352;2024-02-28T12:47:55;10.15;;;4.10;;
72439;SDS011;60446;50.752;4.352;2024-02-28T12:50:23;10.32;;;5.13;;
72439;SDS011;60446;50.752;4.352;2024-02-28T12:52:50;11.90;;;4.30;;
72439;SDS011;60446;50.752;4.352;2024-02-28T12:55:20;11.43;;;4.85;;
72439;SDS011;60446;50.752;4.352;2024-02-28T12:57:48;11.57;;;4.72;;
72439;SDS011;60446;50.752;4.352;2024-02-28T13:00:15;9.20;;;4.47;;
72439;SDS011;60446;50.752;4.352;2024-02-28T13:02:43;9.40;;;4.55;;
72439;SDS011;60446;50.752;4.352;2024-02-28T13:05:11;8.13;;;4.30;;
72439;SDS011;60446;50.752;4.352;2024-02-28T13:07:42;9.82;;;4.10;;
72439;SDS011;60446;50.752;4.352;2024-02-28T13:10:09;10.82;;;4.75;;
72439;SDS011;60446;50.752;4.352;2024-02-28T13:12:39;10.40;;;4.50;;
72439;SDS011;60446;50.752;4.352;2024-02-28T13:15:07;10.60;;;4.25;;
72439;SDS011;60446;50.752;4.352;2024-02-28T13:17:35;10.67;;;4.27;;
72439;SDS011;60446;50.752;4.352;2024-02-28T13:20:02;10.02;;;4.70;;
72439;SDS011;60446;50.752;4.352;2024-02-28T13:22:30;10.93;;;5.38;;
72439;SDS011;60446;50.752;4.352;2024-02-28T13:24:57;10.73;;;4.28;;
72439;SDS011;60446;50.752;4.352;2024-02-28T13:27:24;9.65;;;4.53;;
72439;SDS011;60446;50.752;4.352;2024-02-28T13:29:52;12.00;;;5.13;;
72439;SDS011;60446;50.752;4.352;2024-02-28T13:32:19;8.60;;;4.50;;
72439;SDS011;60446;50.752;4.352;2024-02-28T13:34:47;10.18;;;4.30;;
72439;SDS011;60446;50.752;4.352;2024-02-28T13:37:15;9.40;;;3.72;;
72439;SDS011;60446;50.752;4.352;2024-02-28T13:39:43;7.28;;;3.40;;
72439;SDS011;60446;50.752;4.352;2024-02-28T13:42:10;9.30;;;3.57;;
72439;SDS011;60446;50.752;4.352;2024-02-28T13:44:38;6.25;;;3.63;;
72439;SDS011;60446;50.752;4.352;2024-02-28T13:47:07;7.70;;;4.30;;
72439;SDS011;60446;50.752;4.352;2024-02-28T13:49:34;8.38;;;3.50;;
72439;SDS011;60446;50.752;4.352;2024-02-28T13:52:01;10.32;;;4.10;;
72439;SDS011;60446;50.752;4.352;2024-02-28T13:54:28;8.20;;;4.20;;
72439;SDS011;60446;50.752;4.352;2024-02-28T13:56:56;7.82;;;4.03;;
72439;SDS011;60446;50.752;4.352;2024-02-28T13:59:25;9.25;;;4.25;;
72439;SDS011;60446;50.752;4.352;2024-02-28T14:01:52;9.77;;;4.47;;
72439;SDS011;60446;50.752;4.352;2024-02-28T14:04:20;7.70;;;4.07;;
72439;SDS011;60446;50.752;4.352;2024-02-28T14:06:48;8.47;;;3.93;;
72439;SDS011;60446;50.752;4.352;2024-02-28T14:09:16;9.38;;;4.07;;
72439;SDS011;60446;50.752;4.352;2024-02-28T14:11:43;10.48;;;4.28;;
72439;SDS011;60446;50.752;4.352;2024-02-28T14:14:11;8.90;;;3.60;;
72439;SDS011;60446;50.752;4.352;2024-02-28T14:16:39;7.13;;;3.60;;
72439;SDS011;60446;50.752;4.352;2024-02-28T14:19:07;7.73;;;4.20;;
72439;SDS011;60446;50.752;4.352;2024-02-28T14:21:35;9.13;;;3.58;;
72439;SDS011;60446;50.752;4.352;2024-02-28T14:24:02;7.38;;;3.97;;
72439;SDS011;60446;50.752;4.352;2024-02-28T14:26:30;9.10;;;3.75;;
72439;SDS011;60446;50.752;4.352;2024-02-28T14:28:57;9.55;;;4.00;;
72439;SDS011;60446;50.752;4.352;2024-02-28T14:31:24;7.00;;;3.70;;
72439;SDS011;60446;50.752;4.352;2024-02-28T14:33:53;7.60;;;3.67;;
72439;SDS011;60446;50.752;4.352;2024-02-28T14:36:21;10.73;;;4.18;;
72439;SDS011;60446;50.752;4.352;2024-02-28T14:38:48;7.93;;;3.83;;
72439;SDS011;60446;50.752;4.352;2024-02-28T14:41:15;9.57;;;3.90;;